Ana Sayfa
METAR-TAF:

METAR-TAF

Havaalanları :

Cape May County Airport

Wildwood, New Jersey, Amerika Birleşik Devletleri

Enlem: 39-01N, Boylam: 074-55W, yükseklik: 7 m

Güncel hava durumu gözlemi

Rapor saat 03:56 UTC de 34 dakika önce yapıldı.
Rüzgar güney/güneybatıdan 4 kt
Sıcaklık 23°C
Nem 78%
Basınç 1019 hPa
Görüş mesafesi: 16.1 km
Açık gökyüzü

METAR: KWWD 160356Z AUTO 21004KT 10SM CLR 23/19 A3009 RMK AO2 SLP190 T02280189

Saat: 00:30 (04:30 UTC)


TAF: eksik

4.000'den fazla havaalanı için hava durumu gözlemleri ve tahminleri (METAR ve TAF raporları).

Kullanılabilir istasyonlar harita üzerinde sarı ve kırmızı noktalarla gösterilir.

İstasyonun adını görmek için fareyi noktanın üzerinde gezdirin.

Sonrasında hava gözlem ve tahminlerini görmek için tıklayın.

Haritayı değiştirmek için: yaklaştırmak için siyah artı işaretli yeşil düğmeye ve uzaklaştırmak için de eksi işaretli düğmeye hızla tıklayın; bitişik haritalar için yeşil okları kullanın.


METAR-TAF: